ADDS METAR Data INFO
IDs: Format: Raw Decoded Include TAF

Data at: 0316 UTC 21 Sep 2017

KCOT 210253Z AUTO 15013G25KT 10SM CLR 31/23 A2984 RMK AO2 PK WND 14027/0225 SLP097 T03110228 53020
KCOT 210153Z AUTO 15016KT 10SM CLR 33/22 A2982 RMK AO2 SLP087 T03330222
KCOT 210053Z AUTO 14007KT 10SM CLR 35/17 A2979 RMK AO2 SLP078 T03500167
KCOT 202353Z AUTO 14010KT 10SM FEW075 FEW110 37/16 A2978 RMK AO2 SLP076 T03720161 10394 20344 55000
KCOT 202253Z AUTO 18007KT 10SM BKN085 38/16 A2978 RMK AO2 SLP076 T03830156
KCOT 202153Z AUTO 15011G16KT 10SM SCT075 BKN090 38/16 A2977 RMK AO2 SLP073 T03830161
KCOT 202053Z AUTO 16011G17KT 120V200 10SM FEW070 38/17 A2978 RMK AO2 SLP076 T03780172 56034
KCOT 201953Z AUTO 14006KT 10SM CLR 37/18 A2982 RMK AO2 SLP087 T03720183
KCOT 201853Z AUTO 17009G15KT 10SM CLR 36/20 A2985 RMK AO2 SLP099 T03610200
KCOT 201753Z AUTO 12005KT 10SM CLR 34/21 A2989 RMK AO2 SLP111 T03440206 10350 20250 58005
KCOT 201653Z AUTO 17011G16KT 10SM FEW031 33/22 A2991 RMK AO2 SLP118 T03280217
KCOT 201553Z AUTO 16010G17KT 10SM FEW022 31/22 A2992 RMK AO2 SLP122 T03110222
KCOT 201453Z AUTO 15012G19KT 10SM SCT016 29/23 A2990 RMK AO2 SLP117 T02890228 51013
KCOT 201444Z AUTO 15012G19KT 10SM BKN016 28/23 A2990 RMK AO2 T02780233
KCOT 201404Z AUTO 14010KT 9SM BKN012 27/23 A2990 RMK AO2 T02670233
KCOT 201353Z AUTO 14009KT 8SM SCT012 27/23 A2989 RMK AO2 SLP114 T02670233
KCOT 201253Z AUTO 12006KT 7SM CLR 25/23 A2988 RMK AO2 SLP109 T02500228
KCOT 201153Z AUTO 13009KT 9SM CLR 25/23 A2986 RMK AO2 SLP103 70006 T02500228 10278 20250 53006
KCOT 201053Z AUTO 14009KT 9SM CLR 26/23 A2985 RMK AO2 SLP100 T02560228
KCOT 200953Z AUTO 13009KT 10SM CLR 27/23 A2985 RMK AO2 SLP098 T02670228
KCOT 200853Z AUTO 13007KT 10SM CLR 26/23 A2984 RMK AO2 SLP097 T02610228 58003
KCOT 200753Z AUTO 14008KT 10SM CLR 27/23 A2985 RMK AO2 SLP100 T02670228
KCOT 200653Z AUTO 15007KT 10SM CLR 27/23 A2986 RMK AO2 SLP102 T02720228
KCOT 200553Z AUTO 14009KT 10SM CLR 27/23 A2985 RMK AO2 SLP100 60006 T02720228 10356 20267 403830250 51011
KCOT 200453Z AUTO 15009KT 10SM CLR 28/23 A2985 RMK AO2 SLP099 T02780228
KCOT 200353Z AUTO 14010KT 10SM CLR 28/23 A2984 RMK AO2 SLP097 T02830228
KCOT 200253Z AUTO 15006KT 10SM CLR 29/23 A2982 RMK AO2 SLP090 60006 T02940228 53004
KCOT 200153Z AUTO 14016KT 10SM CLR 29/23 A2979 RMK AO2 PK WND 14033/0111 WSHFT 0058 RAE25 TSE20 SLP078 P0004 T02940233
KCOT 200126Z AUTO 12014G25KT 10SM FEW036 SCT085 29/23 A2977 RMK AO2 PK WND 14033/0111 WSHFT 0058 RAE25 TSE20 P0004 T02890228
KCOT 200118Z AUTO 14019G33KT 10SM -TSRA SCT036 SCT050 BKN065 28/21 A2977 RMK AO2 PK WND 14033/0111 WSHFT 0058 LTG DSNT N AND NE P0004 T02830211
KCOT 200053Z AUTO VRB06KT 9SM -TSRA SCT080 OVC100 29/19 A2983 RMK AO2 PK WND 33030/0035 LTG DSNT NE AND S AND SW RAB40 TSB22 SLP094 P0002 T02890194
KCOT 200028Z AUTO 34010G18KT 10SM TS SCT080 BKN110 32/18 A2982 RMK AO2 LTG DSNT SW-N TSB22 T03220178
KCOT 192353Z AUTO 13007KT 10SM VCTS FEW085 36/17 A2981 RMK AO2 LTG DSNT W-N SLP085 T03560167 10383 20339 53004
KCOT 192253Z AUTO 15008KT 10SM CLR 37/17 A2977 RMK AO2 LTG DSNT W AND NW SLP070 T03670167
KCOT 192153Z AUTO 18009G19KT 10SM FEW075 37/17 A2977 RMK AO2 SLP071 T03720172
KCOT 192053Z AUTO 17007KT 140V200 10SM FEW070 38/17 A2980 RMK AO2 SLP081 T03780172 56033
KCOT 191953Z AUTO 18007KT 10SM FEW070 37/18 A2983 RMK AO2 SLP090 T03720183
KCOT 191853Z AUTO 15010KT 10SM FEW055 36/19 A2986 RMK AO2 SLP103 T03610189
KCOT 191753Z AUTO 15007G16KT 10SM FEW045 34/20 A2989 RMK AO2 SLP114 T03440200 10350 20250 58011
KCOT 191653Z AUTO 19007G15KT 6SM HZ FEW035 33/21 A2992 RMK AO2 SLP123 T03280211
KCOT 191553Z AUTO 18009G18KT 10SM FEW025 31/22 A2994 RMK AO2 SLP129 T03060217